createdAt,value
2023-03-10T00:01:48.091Z,87.10
2023-03-10T00:04:18.826Z,86.00
2023-03-10T00:06:49.881Z,91.70
2023-03-10T00:09:20.532Z,89.90
2023-03-10T00:11:51.223Z,90.40
2023-03-10T00:14:21.842Z,78.30
2023-03-10T00:16:52.483Z,82.00
2023-03-10T00:19:23.183Z,89.70
2023-03-10T00:21:54.635Z,91.40
2023-03-10T00:24:25.238Z,91.00
2023-03-10T00:26:55.899Z,95.10
2023-03-10T00:29:26.619Z,89.30
2023-03-10T00:31:57.289Z,110.60
2023-03-10T00:34:27.894Z,115.70
2023-03-10T00:36:58.764Z,105.70
2023-03-10T00:39:29.416Z,108.50
2023-03-10T00:42:00.494Z,95.50
2023-03-10T00:47:00.528Z,97.10
2023-03-10T00:49:31.157Z,103.10
2023-03-10T00:52:01.840Z,101.70
2023-03-10T00:54:32.817Z,100.70
2023-03-10T00:59:47.806Z,90.00
2023-03-10T01:02:20.615Z,88.10
2023-03-10T01:04:51.274Z,96.00
2023-03-10T01:07:21.909Z,94.20
2023-03-10T01:09:52.556Z,94.00
2023-03-10T01:12:23.288Z,87.00
2023-03-10T01:14:53.921Z,86.60
2023-03-10T01:17:24.551Z,84.70
2023-03-10T01:19:55.245Z,89.20
2023-03-10T01:22:25.935Z,87.50
2023-03-10T01:24:56.573Z,91.00
2023-03-10T01:27:27.356Z,90.40
2023-03-10T01:29:58.026Z,83.40
2023-03-10T01:32:28.712Z,90.40
2023-03-10T01:34:59.388Z,80.20
2023-03-10T01:37:30.042Z,78.80
2023-03-10T01:40:02.069Z,85.40
2023-03-10T01:42:33.534Z,79.10
2023-03-10T01:45:30.616Z,81.80
2023-03-10T01:48:11.421Z,75.40
2023-03-10T01:50:43.114Z,75.10
2023-03-10T01:53:15.297Z,71.00
2023-03-10T01:55:51.991Z,74.00
2023-03-10T01:58:26.040Z,76.20
2023-03-10T02:00:56.964Z,74.00
2023-03-10T02:06:01.084Z,67.80
2023-03-10T02:08:37.422Z,62.30
2023-03-10T02:11:08.218Z,68.70
2023-03-10T02:13:38.885Z,66.60
2023-03-10T02:16:10.356Z,65.90
2023-03-10T02:18:43.835Z,67.70
2023-03-10T02:21:24.844Z,67.00
2023-03-10T02:24:01.994Z,69.90
2023-03-10T02:26:44.938Z,64.60
2023-03-10T02:29:20.438Z,68.20
2023-03-10T02:31:52.817Z,70.20
2023-03-10T02:34:25.106Z,69.00
2023-03-10T02:36:56.258Z,70.50
2023-03-10T02:41:56.603Z,71.10
2023-03-10T02:44:27.615Z,71.00
2023-03-10T02:49:28.585Z,66.80
2023-03-10T02:52:00.733Z,71.20
2023-03-10T02:54:31.402Z,72.30
2023-03-10T02:57:02.094Z,72.70
2023-03-10T02:59:32.849Z,78.60
2023-03-10T03:02:03.473Z,79.20
2023-03-10T03:04:34.286Z,75.50
2023-03-10T03:07:05.006Z,74.90
2023-03-10T03:09:36.021Z,82.80
2023-03-10T03:12:10.954Z,79.20
2023-03-10T03:14:41.622Z,79.20
2023-03-10T03:17:12.481Z,83.20
2023-03-10T03:19:43.242Z,86.40
2023-03-10T03:22:13.912Z,88.00
2023-03-10T03:24:44.670Z,91.90
2023-03-10T03:27:15.296Z,94.20
2023-03-10T03:29:45.951Z,95.60
2023-03-10T03:32:16.860Z,88.60
2023-03-10T03:34:47.518Z,97.10
2023-03-10T03:37:18.158Z,101.70
2023-03-10T03:39:48.962Z,94.90
2023-03-10T03:42:19.607Z,104.40
2023-03-10T03:44:50.391Z,96.00
2023-03-10T03:47:20.989Z,104.70
2023-03-10T03:49:51.901Z,99.50
2023-03-10T03:52:22.535Z,99.70
2023-03-10T03:54:53.930Z,104.30
2023-03-10T03:57:24.601Z,103.00
2023-03-10T03:59:55.375Z,98.20
2023-03-10T04:02:26.073Z,106.30
2023-03-10T04:04:57.341Z,105.90
2023-03-10T04:07:27.996Z,104.10
2023-03-10T04:09:58.705Z,107.40
2023-03-10T04:12:29.419Z,106.40
2023-03-10T04:15:00.282Z,109.00
2023-03-10T04:17:30.961Z,109.30
2023-03-10T04:20:07.465Z,117.80
2023-03-10T04:22:38.828Z,113.40
2023-03-10T04:25:10.341Z,113.80
2023-03-10T04:27:41.014Z,110.00
2023-03-10T04:30:19.639Z,114.20
2023-03-10T04:32:50.416Z,115.20
2023-03-10T04:35:21.364Z,110.40
2023-03-10T04:37:52.038Z,101.10
2023-03-10T04:40:30.713Z,103.90
2023-03-10T04:43:01.450Z,105.00
2023-03-10T04:45:32.121Z,105.50
2023-03-10T04:48:02.749Z,98.00
2023-03-10T04:50:33.428Z,103.60
2023-03-10T04:53:04.047Z,103.50
2023-03-10T04:55:34.800Z,105.30
2023-03-10T04:58:05.422Z,97.30
2023-03-10T05:00:56.446Z,102.20
2023-03-10T05:03:27.335Z,97.30
2023-03-10T05:05:57.982Z,92.40
2023-03-10T05:08:28.721Z,101.70
2023-03-10T05:10:59.392Z,102.80
2023-03-10T05:13:31.819Z,92.00
2023-03-10T05:16:03.015Z,94.10
2023-03-10T05:21:02.855Z,93.40
2023-03-10T05:23:33.608Z,91.70
2023-03-10T05:26:06.616Z,95.90
2023-03-10T05:28:37.989Z,92.00
2023-03-10T05:31:15.226Z,95.50
2023-03-10T05:33:45.936Z,99.20
2023-03-10T05:36:16.679Z,97.00
2023-03-10T05:38:47.587Z,100.00
2023-03-10T05:41:18.942Z,97.10
2023-03-10T05:43:49.608Z,95.10
2023-03-10T05:46:20.402Z,97.50
2023-03-10T05:48:51.242Z,103.10
2023-03-10T05:51:22.057Z,107.00
2023-03-10T05:53:52.713Z,111.40
2023-03-10T05:56:23.414Z,117.10
2023-03-10T05:58:54.140Z,109.60
2023-03-10T06:01:25.391Z,108.10
2023-03-10T06:03:56.120Z,102.50
2023-03-10T06:06:26.997Z,97.20
2023-03-10T06:08:58.008Z,93.10
2023-03-10T06:13:58.143Z,84.90
2023-03-10T06:16:29.267Z,88.30
2023-03-10T06:19:00.153Z,88.40
2023-03-10T06:21:31.087Z,91.10
2023-03-10T06:24:01.678Z,92.60
2023-03-10T06:26:32.461Z,86.70
2023-03-10T06:29:03.419Z,87.50
2023-03-10T06:31:34.440Z,87.90
2023-03-10T06:36:35.702Z,87.60
2023-03-10T06:39:06.525Z,85.60
2023-03-10T06:41:38.191Z,81.60
2023-03-10T06:44:08.838Z,89.40
2023-03-10T06:46:39.963Z,87.60
2023-03-10T06:51:39.662Z,86.80
2023-03-10T06:54:10.278Z,82.40
2023-03-10T06:56:41.003Z,86.60
2023-03-10T06:59:12.172Z,83.30
2023-03-10T07:01:43.642Z,90.10
2023-03-10T07:04:14.491Z,91.60
2023-03-10T07:06:45.229Z,85.80
2023-03-10T07:09:16.446Z,91.20
2023-03-10T07:11:48.156Z,89.10
2023-03-10T07:14:18.888Z,92.70
2023-03-10T07:16:49.619Z,89.00
2023-03-10T07:19:22.946Z,82.10
2023-03-10T07:21:53.664Z,81.20
2023-03-10T07:24:24.363Z,73.00
2023-03-10T07:26:55.379Z,67.90
2023-03-10T07:29:26.021Z,58.90
2023-03-10T07:31:56.746Z,68.00
2023-03-10T07:34:27.519Z,54.80
2023-03-10T07:36:58.201Z,49.00
2023-03-10T07:39:29.091Z,46.40
2023-03-10T07:41:59.874Z,43.00
2023-03-10T07:44:31.172Z,39.40
2023-03-10T07:47:01.930Z,40.40
2023-03-10T07:49:32.536Z,38.70
2023-03-10T07:52:03.251Z,35.90
2023-03-10T07:54:33.882Z,32.60
2023-03-10T07:57:04.659Z,32.80
2023-03-10T07:59:35.649Z,29.00
2023-03-10T08:02:09.411Z,31.50
2023-03-10T08:04:40.711Z,32.10
2023-03-10T08:07:11.726Z,30.60
2023-03-10T08:09:42.702Z,26.00
2023-03-10T08:14:42.482Z,21.10
2023-03-10T08:17:13.333Z,27.90
2023-03-10T08:19:44.171Z,22.50
2023-03-10T08:22:15.871Z,24.70
2023-03-10T08:24:47.072Z,26.90
2023-03-10T08:29:46.783Z,24.70
2023-03-10T08:32:30.502Z,22.20
2023-03-10T08:35:03.990Z,22.40
2023-03-10T08:37:35.200Z,26.40
2023-03-10T08:40:09.016Z,21.50
2023-03-10T08:42:40.838Z,21.00
2023-03-10T08:45:13.082Z,20.60
2023-03-10T08:47:44.031Z,17.20
2023-03-10T08:50:14.794Z,17.60
2023-03-10T08:52:45.583Z,17.80
2023-03-10T08:55:16.544Z,23.70
2023-03-10T08:57:47.266Z,19.10
2023-03-10T09:00:20.019Z,17.70
2023-03-10T09:02:51.591Z,15.50
2023-03-10T09:05:23.980Z,15.00
2023-03-10T09:07:54.802Z,15.90
2023-03-10T09:10:25.472Z,13.90
2023-03-10T09:13:13.324Z,16.30
2023-03-10T09:15:45.082Z,15.60
2023-03-10T09:18:16.588Z,14.70
2023-03-10T09:20:47.395Z,16.50
2023-03-10T09:23:18.609Z,11.80
2023-03-10T09:25:49.378Z,13.90
2023-03-10T09:28:20.557Z,14.30
2023-03-10T09:30:51.259Z,14.50
2023-03-10T09:33:23.182Z,15.00
2023-03-10T09:36:05.839Z,12.00
2023-03-10T09:38:37.418Z,14.50
2023-03-10T09:41:21.110Z,13.50
2023-03-10T09:44:02.319Z,13.10
2023-03-10T09:46:45.431Z,14.00
2023-03-10T09:49:26.325Z,14.60
2023-03-10T09:51:57.093Z,14.20
2023-03-10T09:54:42.174Z,15.20
2023-03-10T09:57:18.149Z,16.50
2023-03-10T09:59:52.187Z,14.20
2023-03-10T10:02:27.831Z,13.50
2023-03-10T10:05:03.776Z,12.20
2023-03-10T10:07:43.794Z,9.80
2023-03-10T10:10:19.112Z,9.60
2023-03-10T10:12:52.260Z,10.10
2023-03-10T10:15:25.398Z,11.40
2023-03-10T10:18:17.818Z,9.60
2023-03-10T10:20:53.190Z,8.10
2023-03-10T10:23:29.174Z,8.90
2023-03-10T10:26:08.880Z,12.00
2023-03-10T10:28:44.394Z,12.80
2023-03-10T10:31:18.925Z,12.70
2023-03-10T10:33:58.409Z,14.90
2023-03-10T10:36:32.072Z,8.70
2023-03-10T10:39:04.939Z,11.60
2023-03-10T10:41:36.115Z,13.60
2023-03-10T10:44:15.654Z,11.30
2023-03-10T10:46:54.423Z,10.20
2023-03-10T10:49:27.169Z,11.10
2023-03-10T10:52:03.899Z,9.80
2023-03-10T10:54:41.912Z,9.60
2023-03-10T10:57:20.716Z,9.10
2023-03-10T10:59:51.582Z,6.50
2023-03-10T11:02:29.321Z,6.10
2023-03-10T11:05:12.925Z,6.20
2023-03-10T11:07:44.082Z,5.50
2023-03-10T11:10:16.682Z,6.20
2023-03-10T11:12:59.347Z,6.90
2023-03-10T11:15:34.898Z,7.70
2023-03-10T11:18:13.125Z,8.00
2023-03-10T11:20:54.869Z,5.00
2023-03-10T11:23:33.130Z,9.70
2023-03-10T11:26:13.681Z,6.40
2023-03-10T11:28:52.906Z,6.60
2023-03-10T11:31:39.189Z,5.30
2023-03-10T11:34:21.086Z,8.50
2023-03-10T11:37:04.836Z,6.30
2023-03-10T11:39:46.717Z,5.90
2023-03-10T11:42:27.464Z,6.30
2023-03-10T11:45:13.320Z,6.60
2023-03-10T11:47:53.089Z,6.00
2023-03-10T11:50:34.723Z,4.10
2023-03-10T11:53:14.632Z,4.50
2023-03-10T11:55:46.889Z,6.20
2023-03-10T11:58:24.558Z,5.90
2023-03-10T12:00:56.087Z,4.60
2023-03-10T12:03:42.416Z,4.20
2023-03-10T12:06:17.582Z,4.70
2023-03-10T12:08:52.456Z,4.30
2023-03-10T12:11:26.549Z,4.90
2023-03-10T12:14:00.980Z,4.10
2023-03-10T12:16:36.827Z,4.10
2023-03-10T12:19:07.882Z,5.50
2023-03-10T12:24:45.021Z,3.70
2023-03-10T12:27:16.113Z,5.70
2023-03-10T12:29:47.160Z,4.80
2023-03-10T12:32:40.484Z,6.20
2023-03-10T12:35:42.209Z,4.80
2023-03-10T12:38:45.579Z,5.40
2023-03-10T12:41:52.361Z,6.40
2023-03-10T12:44:50.104Z,8.30
2023-03-10T12:47:29.166Z,8.50
2023-03-10T12:50:20.406Z,8.00
2023-03-10T12:52:59.565Z,7.30
2023-03-10T12:55:30.776Z,5.70
2023-03-10T12:58:10.373Z,5.00
2023-03-10T13:00:47.889Z,4.10
2023-03-10T13:03:29.517Z,6.50
2023-03-10T13:06:19.507Z,4.90
2023-03-10T13:08:53.483Z,6.70
2023-03-10T13:11:38.196Z,9.30
2023-03-10T13:14:13.582Z,8.30
2023-03-10T13:16:54.529Z,7.90
2023-03-10T13:19:27.132Z,8.60
2023-03-10T13:21:57.942Z,10.40
2023-03-10T13:24:30.836Z,8.60
2023-03-10T13:27:06.820Z,6.70
2023-03-10T13:29:37.914Z,7.30
2023-03-10T13:32:19.838Z,5.20
2023-03-10T13:34:50.537Z,5.80
2023-03-10T13:37:21.502Z,6.20
2023-03-10T13:39:52.579Z,4.30
2023-03-10T13:42:37.099Z,6.70
2023-03-10T13:45:24.112Z,5.70
2023-03-10T13:47:55.970Z,3.10
2023-03-10T13:50:26.669Z,3.50
2023-03-10T13:52:58.675Z,4.30
2023-03-10T13:55:38.774Z,3.60
2023-03-10T13:58:12.968Z,5.70
2023-03-10T14:00:43.740Z,6.70
2023-03-10T14:03:15.124Z,5.50
2023-03-10T14:05:47.662Z,3.90
2023-03-10T14:08:24.812Z,6.10
2023-03-10T14:11:15.517Z,4.50
2023-03-10T14:13:46.682Z,5.00
2023-03-10T14:16:17.337Z,4.50
2023-03-10T14:18:48.245Z,6.60
2023-03-10T14:24:29.505Z,3.60
2023-03-10T14:27:02.180Z,6.00
2023-03-10T14:29:32.876Z,5.40
2023-03-10T14:32:03.968Z,6.60
2023-03-10T14:37:03.642Z,4.60
2023-03-10T14:39:34.419Z,4.50
2023-03-10T14:44:34.978Z,4.10
2023-03-10T14:49:35.473Z,5.50
2023-03-10T14:52:10.621Z,3.40
2023-03-10T14:54:41.346Z,6.20
2023-03-10T14:57:14.942Z,4.00
2023-03-10T14:59:45.811Z,6.50
2023-03-10T15:02:22.306Z,5.90
2023-03-10T15:04:53.555Z,6.50
2023-03-10T15:07:24.299Z,3.70
2023-03-10T15:10:05.390Z,5.60
2023-03-10T15:12:42.665Z,4.40
2023-03-10T15:15:18.824Z,4.80
2023-03-10T15:17:50.162Z,5.50
2023-03-10T15:20:30.430Z,4.70
2023-03-10T15:23:01.416Z,9.40
2023-03-10T15:28:01.549Z,3.60
2023-03-10T15:30:34.779Z,5.60
2023-03-10T15:33:05.621Z,4.10
2023-03-10T15:38:05.833Z,6.50
2023-03-10T15:40:36.844Z,2.60
2023-03-10T15:43:09.393Z,4.40
2023-03-10T15:45:43.581Z,4.40
2023-03-10T15:48:15.225Z,5.60
2023-03-10T15:50:46.805Z,8.20
2023-03-10T15:53:17.656Z,10.50
2023-03-10T15:55:48.334Z,6.80
2023-03-10T15:58:19.080Z,5.30
2023-03-10T16:00:49.779Z,10.10
2023-03-10T16:05:50.190Z,32.70
2023-03-10T16:08:20.930Z,20.80
2023-03-10T16:10:55.063Z,15.60
2023-03-10T16:13:25.728Z,17.00
2023-03-10T16:15:56.528Z,19.50
2023-03-10T16:18:27.855Z,23.00
2023-03-10T16:23:30.806Z,24.90
2023-03-10T16:26:10.222Z,20.90
2023-03-10T16:28:43.238Z,20.70
2023-03-10T16:31:16.267Z,22.90
2023-03-10T16:33:47.758Z,19.60
2023-03-10T16:36:21.038Z,24.10
2023-03-10T16:38:52.322Z,29.60
2023-03-10T16:41:23.777Z,29.00
2023-03-10T16:43:54.442Z,28.70
2023-03-10T16:46:26.854Z,30.70
2023-03-10T16:48:58.835Z,30.00
2023-03-10T16:51:31.325Z,53.10
2023-03-10T16:54:04.377Z,76.80
2023-03-10T16:56:37.608Z,74.00
2023-03-10T16:59:11.270Z,64.30
2023-03-10T17:01:42.074Z,38.40
2023-03-10T17:04:12.964Z,29.30
2023-03-10T17:09:15.505Z,32.40
2023-03-10T17:11:48.588Z,28.40
2023-03-10T17:14:20.489Z,41.00
2023-03-10T17:16:54.822Z,43.80
2023-03-10T17:19:25.901Z,58.40
2023-03-10T17:22:00.142Z,61.10
2023-03-10T17:24:31.047Z,66.90
2023-03-10T17:27:01.950Z,56.80
2023-03-10T17:29:33.081Z,53.60
2023-03-10T17:32:04.034Z,49.50
2023-03-10T17:37:04.207Z,51.50
2023-03-10T17:39:35.470Z,52.80
2023-03-10T17:42:06.904Z,54.40
2023-03-10T17:44:37.894Z,73.50
2023-03-10T17:47:08.975Z,64.20
2023-03-10T17:49:39.828Z,46.50
2023-03-10T17:54:40.778Z,45.60
2023-03-10T17:57:11.763Z,39.40
2023-03-10T17:59:42.936Z,39.50
2023-03-10T18:04:43.398Z,35.30
2023-03-10T18:07:14.293Z,31.50
2023-03-10T18:09:44.979Z,30.40
2023-03-10T18:12:15.872Z,30.70
2023-03-10T18:14:46.666Z,34.60
2023-03-10T18:17:40.286Z,30.80
2023-03-10T18:20:13.720Z,32.10
2023-03-10T18:22:44.985Z,40.50
2023-03-10T18:25:15.922Z,54.10
2023-03-10T18:27:47.076Z,51.30
2023-03-10T18:30:18.742Z,52.60
2023-03-10T18:32:50.234Z,46.50
2023-03-10T18:35:21.141Z,48.40
2023-03-10T18:37:51.993Z,64.00
2023-03-10T18:40:23.097Z,54.90
2023-03-10T18:42:54.026Z,53.50
2023-03-10T18:45:25.627Z,46.80
2023-03-10T18:47:56.753Z,43.00
2023-03-10T18:50:27.998Z,43.20
2023-03-10T18:52:59.185Z,49.70
2023-03-10T18:55:30.076Z,49.30
2023-03-10T18:58:01.166Z,46.80
2023-03-10T19:00:32.240Z,48.30
2023-03-10T19:05:32.719Z,48.60
2023-03-10T19:08:03.958Z,49.00
2023-03-10T19:10:35.425Z,48.50
2023-03-10T19:13:08.041Z,61.90
2023-03-10T19:15:39.720Z,62.00
2023-03-10T19:18:10.893Z,73.00
2023-03-10T19:20:42.000Z,67.10
2023-03-10T19:23:13.393Z,74.60
2023-03-10T19:25:44.702Z,65.70
2023-03-10T19:28:16.201Z,66.70
2023-03-10T19:30:47.228Z,57.30
2023-03-10T19:33:18.400Z,54.20
2023-03-10T19:35:49.323Z,54.00
2023-03-10T19:40:50.199Z,61.10
2023-03-10T19:43:21.244Z,64.50
2023-03-10T19:48:21.624Z,73.00
2023-03-10T19:50:55.724Z,73.60
2023-03-10T19:53:28.427Z,74.60
2023-03-10T19:56:00.557Z,118.50
2023-03-10T19:58:32.119Z,141.80
2023-03-10T20:01:02.793Z,173.90
2023-03-10T20:03:33.794Z,206.80
2023-03-10T20:08:33.719Z,164.70
2023-03-10T20:11:06.808Z,169.90
2023-03-10T20:16:09.651Z,133.00
2023-03-10T20:18:40.436Z,139.80
2023-03-10T20:21:11.180Z,123.50
2023-03-10T20:23:41.952Z,116.40
2023-03-10T20:26:12.654Z,124.70
2023-03-10T20:28:43.730Z,132.30
2023-03-10T20:31:19.058Z,130.70
2023-03-10T20:33:50.192Z,127.70
2023-03-10T20:38:49.888Z,95.60
2023-03-10T20:41:20.822Z,102.20
2023-03-10T20:46:21.105Z,86.50
2023-03-10T20:48:51.821Z,88.00
2023-03-10T20:51:23.065Z,68.90
2023-03-10T20:53:53.682Z,67.80
2023-03-10T20:56:24.391Z,65.20
2023-03-10T20:58:55.116Z,59.60
2023-03-10T21:01:26.713Z,57.70
2023-03-10T21:03:57.859Z,56.40
2023-03-10T21:08:57.759Z,46.90
2023-03-10T21:11:29.270Z,36.50
2023-03-10T21:13:59.978Z,29.30
2023-03-10T21:16:30.706Z,29.80
2023-03-10T21:19:01.671Z,25.70
2023-03-10T21:21:32.329Z,19.30
2023-03-10T21:24:04.776Z,19.90
2023-03-10T21:26:35.574Z,13.80
2023-03-10T21:29:06.259Z,11.90
2023-03-10T21:31:36.965Z,9.80
2023-03-10T21:34:07.689Z,10.30
2023-03-10T21:36:38.462Z,8.00
2023-03-10T21:39:09.655Z,10.40
2023-03-10T21:41:40.484Z,9.90
2023-03-10T21:44:12.633Z,10.90
2023-03-10T21:46:43.535Z,8.20
2023-03-10T21:49:14.318Z,12.10
2023-03-10T21:51:45.047Z,11.80
2023-03-10T21:54:15.702Z,5.40
2023-03-10T21:56:46.376Z,6.90
2023-03-10T21:59:17.086Z,6.80
2023-03-10T22:01:47.795Z,5.30
2023-03-10T22:04:18.724Z,4.60
2023-03-10T22:06:49.394Z,3.50
2023-03-10T22:09:20.061Z,3.40
2023-03-10T22:11:50.856Z,4.30
2023-03-10T22:14:24.040Z,4.60
2023-03-10T22:16:55.263Z,4.20
2023-03-10T22:19:25.915Z,3.80
2023-03-10T22:21:56.611Z,5.10
2023-03-10T22:24:27.337Z,5.30
2023-03-10T22:26:58.424Z,5.90
2023-03-10T22:31:58.173Z,4.40
2023-03-10T22:34:29.106Z,5.50
2023-03-10T22:39:29.254Z,5.70
2023-03-10T22:41:59.955Z,5.60
2023-03-10T22:44:35.679Z,6.40
2023-03-10T22:47:07.068Z,5.90
2023-03-10T22:49:40.239Z,8.20
2023-03-10T22:52:10.966Z,9.30
2023-03-10T22:54:41.661Z,9.30
2023-03-10T22:57:12.323Z,13.00
2023-03-10T22:59:43.023Z,12.60
2023-03-10T23:02:13.706Z,12.20
2023-03-10T23:04:44.365Z,11.70
2023-03-10T23:07:15.405Z,11.60
2023-03-10T23:09:46.112Z,9.50
2023-03-10T23:12:16.824Z,9.50
2023-03-10T23:14:47.462Z,10.80
2023-03-10T23:17:18.147Z,14.50
2023-03-10T23:19:48.770Z,6.80
2023-03-10T23:22:19.502Z,8.80
2023-03-10T23:24:50.213Z,7.10
2023-03-10T23:27:20.937Z,6.90
2023-03-10T23:29:51.545Z,8.10
2023-03-10T23:32:22.303Z,6.00
2023-03-10T23:34:53.015Z,5.90
2023-03-10T23:37:23.726Z,6.80
2023-03-10T23:39:54.591Z,6.40
2023-03-10T23:42:25.404Z,5.40
2023-03-10T23:44:56.054Z,6.20
2023-03-10T23:47:26.838Z,6.70
2023-03-10T23:49:58.272Z,8.10
2023-03-10T23:52:29.300Z,7.40
2023-03-10T23:57:29.459Z,6.10
